Sunday, February 14, 2016
06:02 UTC
  |  Log In   |  Register Free
Airport Search:

Francis E Warren Afb Airport
(KFEW)

Francis E Warren Afb Airport Diagram
No Airport Diagram Available

FAA data valid effective Feb 4 2016 - Mar 31 2016 (unless otherwise noted).

 
 
 
 
 
 
 
 
 
 
 
 
 
 
Summary: Francis E Warren Afb (FEW)

Weather Summary


METAR for KFEW is not available. Closest METAR is for KCYS
KFEW  (most recent observation was updatred at 14:04 UTC)
140458Z AUTO 34013G23KT 10SM CLR 00/M03 A3008 RMK AO2 SHRAE0358 SLP171 T00021034 $

KCYS  (2.9 nm SW)   (most recent observation was updated at 14:04 UTC)
140453Z AUTO 33018G27KT 10SM CLR 01/M04 A3005 RMK AO2 PKWND 33027/0452 SLP148 T00061039

K82V  (33.1 nm SW)   (most recent observation was updated at 14:05 UTC)
140535Z AUTO 32009KT 10SM CLR M01/M02 A3007 RMK AO2

TAF for KFEW is not available.
KCYS  (2.9 nm SW)   (most recent observation was updatred at UTC)
COR 140524Z 1406/1506 34019G27KT P6SM BKN050 BKN100 FM141700 29028G40KT P6SM BKN100 FM150100 31020G30KT P6SM BKN100


GlobalAir.com is loading additional information.
Current weather conditions are not available for FEW.

The nearest NOAA weather station is at CYS (2.5 nm NE from FEW)
 Current Weather at CYS
33.0 F° (0.6 C°)
Fair and Breezy
Northwest winds at 20.7 mph
Pressure:
30.05 in
Humidity:
72%
Wind:
from the Northwest at 20.7 gusting to 31.1 MPH (18 gusting to 27 KT)
Dew Point:
25.0 F° (-3.9 C°)
Visibility:
10.00 mi
FEW NOAA Radar

Runway Summary

ID Dimensions Surface Instrument Approaches
H1 65 ft x 65 ft Bituminous Concrete, Good Condition N/A
H2 50 ft x 50 ft Bituminous Concrete N/A

Communications Summary


CTAFN/A
UNICOMN/A
ATISN/A
CLEARANCE DELIVERYN/A

Terminal Procedures Summary


No terminal procedures available for FEW





Closest Alternate Airports with Instrument Procedures

KCYS - Cheyenne Regional/Jerry Olson Field - 3.3 nm NE from FEW

KLAR - Laramie Regional - 43.8 nm NW from FEW

KFNL - Fort Collins-Loveland Municipal - 47.7 nm SW from FEW

KGXY - Greeley-Weld County - 49.7 nm SE from FEW

KIBM - Kimball Municipal/Robert E Arraj Field - 62.1 nm NE from FEW

KLMO - Vance Brand - 68.8 nm SW from FEW

KTOR - Torrington Municipal - 74.2 nm NE from FEW

KEIK - Erie Municipal - 78.3 nm SW from FEW

KBFF - Western Neb. Regional/William B. Heilig Field - 83.4 nm NE from FEW

KBJC - Rocky Mountain Metropolitan - 85.7 nm SW from FEW

Find All Airport Services Find A Hotel Find A Rental Car Find A Golf Course Find A Restaurant $100 Hamburger



FBO's on the Field
FBO Company Facility Photos Services Transportation Aviation Fuel Prices: Prices include tax
Catering Weather Repair Courtesy Rental Type 100LL JetA JetA+ MOGAS 8087
 
Add another FBO Facility Photos Catering Weather Repair Courtesy Rental Type 100LL JetA JetA+ MOGAS 8087
Services Transportation Aviation Fuel Prices: Prices include tax
There are no FBO's currently reporting fuel at FEW. List your FBO now


model-print
model-print
model-print
model-print